TSC82 CYYZ-CYHM
Flight info
| Callsign | TSC82 |
|---|---|
| Flight time | 0h 13m |
| Altitude | 10000 |
| Route | OLAMO |
| Aircraft | A321/M-SDE3FGHIRWY/LB1 |
Departure
| Time | 2026-05-05 21:36 |
|---|---|
| Airport | Toronto Pearson International Airport (CYYZ) |
Arrival
| Time | 2026-05-05 21:50 |
|---|---|
| Airport | John C. Munro Hamilton International Airport (CYHM) |
| Time | Latitude | Longitude | Altitude | Speed | Heading |
|---|---|---|---|---|---|
| 2026-05-05 21:20 | 43.69135 | -79.62882 | 558 ft | 0 kts | 353° |
| 2026-05-05 21:29 | 43.69134 | -79.62883 | 558 ft | 3 kts | 353° |
| 2026-05-05 21:29 | 43.69112 | -79.62877 | 567 ft | 4 kts | 343° |
| 2026-05-05 21:29 | 43.69087 | -79.62863 | 564 ft | 4 kts | 325° |
| 2026-05-05 21:30 | 43.69068 | -79.62839 | 566 ft | 4 kts | 305° |
| 2026-05-05 21:30 | 43.69056 | -79.62813 | 560 ft | 1 kts | 298° |
| 2026-05-05 21:30 | 43.69064 | -79.62836 | 565 ft | 4 kts | 292° |
| 2026-05-05 21:30 | 43.69064 | -79.62870 | 558 ft | 4 kts | 252° |
| 2026-05-05 21:31 | 43.69049 | -79.62896 | 562 ft | 1 kts | 226° |
| 2026-05-05 21:31 | 43.69049 | -79.62897 | 562 ft | 1 kts | 226° |
| 2026-05-05 21:33 | 43.69032 | -79.62925 | 563 ft | 13 kts | 229° |
| 2026-05-05 21:33 | 43.68949 | -79.63049 | 563 ft | 15 kts | 226° |
| 2026-05-05 21:33 | 43.68900 | -79.63170 | 562 ft | 13 kts | 252° |
| 2026-05-05 21:34 | 43.68899 | -79.63288 | 571 ft | 13 kts | 300° |
| 2026-05-05 21:34 | 43.68964 | -79.63376 | 572 ft | 14 kts | 320° |
| 2026-05-05 21:34 | 43.69036 | -79.63462 | 574 ft | 10 kts | 318° |
| 2026-05-05 21:34 | 43.69090 | -79.63524 | 565 ft | 10 kts | 331° |
| 2026-05-05 21:35 | 43.69151 | -79.63483 | 568 ft | 14 kts | 45° |
| 2026-05-05 21:35 | 43.69235 | -79.63421 | 567 ft | 15 kts | 3° |
| 2026-05-05 21:35 | 43.69349 | -79.63425 | 563 ft | 18 kts | 349° |
| 2026-05-05 21:35 | 43.69401 | -79.63537 | 560 ft | 6 kts | 233° |
| 2026-05-05 21:36 | 43.69360 | -79.63596 | 570 ft | 16 kts | 226° |
| 2026-05-05 21:36 | 43.69066 | -79.64019 | 566 ft | 107 kts | 227° |
| 2026-05-05 21:36 | 43.68414 | -79.64966 | 892 ft | 144 kts | 230° |
| 2026-05-05 21:36 | 43.67798 | -79.66057 | 1818 ft | 149 kts | 237° |
| 2026-05-05 21:37 | 43.67164 | -79.67304 | 2614 ft | 171 kts | 234° |
| 2026-05-05 21:37 | 43.66445 | -79.68679 | 3764 ft | 173 kts | 233° |
| 2026-05-05 21:37 | 43.65755 | -79.69950 | 4821 ft | 159 kts | 233° |
| 2026-05-05 21:37 | 43.64719 | -79.70557 | 5627 ft | 182 kts | 194° |
| 2026-05-05 21:38 | 43.63379 | -79.70282 | 6107 ft | 205 kts | 182° |
| 2026-05-05 21:38 | 43.61876 | -79.70049 | 6436 ft | 233 kts | 185° |
| 2026-05-05 21:38 | 43.60175 | -79.69980 | 7087 ft | 253 kts | 189° |
| 2026-05-05 21:38 | 43.58393 | -79.69942 | 8148 ft | 259 kts | 189° |
| 2026-05-05 21:39 | 43.56582 | -79.69878 | 9269 ft | 263 kts | 188° |
| 2026-05-05 21:39 | 43.54746 | -79.69791 | 9744 ft | 264 kts | 187° |
| 2026-05-05 21:39 | 43.52919 | -79.69678 | 9935 ft | 263 kts | 187° |
| 2026-05-05 21:39 | 43.51091 | -79.69550 | 9997 ft | 263 kts | 187° |
| 2026-05-05 21:40 | 43.49258 | -79.69416 | 10003 ft | 264 kts | 187° |
| 2026-05-05 21:40 | 43.47449 | -79.69282 | 10005 ft | 264 kts | 187° |
| 2026-05-05 21:40 | 43.45615 | -79.69147 | 10006 ft | 264 kts | 187° |
| 2026-05-05 21:40 | 43.43788 | -79.69012 | 10007 ft | 263 kts | 187° |
| 2026-05-05 21:41 | 43.41963 | -79.68877 | 10008 ft | 263 kts | 187° |
| 2026-05-05 21:41 | 43.40135 | -79.68743 | 9887 ft | 263 kts | 186° |
| 2026-05-05 21:41 | 43.38306 | -79.68607 | 9748 ft | 263 kts | 186° |
| 2026-05-05 21:41 | 43.36476 | -79.68470 | 9165 ft | 263 kts | 186° |
| 2026-05-05 21:42 | 43.34648 | -79.68330 | 8574 ft | 263 kts | 186° |
| 2026-05-05 21:42 | 43.32822 | -79.68192 | 7989 ft | 263 kts | 186° |
| 2026-05-05 21:42 | 43.30997 | -79.68057 | 7427 ft | 262 kts | 185° |
| 2026-05-05 21:42 | 43.29179 | -79.67920 | 6895 ft | 261 kts | 186° |
| 2026-05-05 21:43 | 43.27375 | -79.67786 | 6450 ft | 258 kts | 186° |
| 2026-05-05 21:43 | 43.25644 | -79.67649 | 6359 ft | 240 kts | 186° |
| 2026-05-05 21:43 | 43.24030 | -79.67516 | 6258 ft | 225 kts | 186° |
| 2026-05-05 21:43 | 43.22513 | -79.67392 | 6170 ft | 212 kts | 187° |
| 2026-05-05 21:44 | 43.21080 | -79.67284 | 6078 ft | 200 kts | 191° |
| 2026-05-05 21:44 | 43.19741 | -79.67515 | 5897 ft | 191 kts | 205° |
| 2026-05-05 21:44 | 43.18484 | -79.68072 | 5586 ft | 190 kts | 206° |
| 2026-05-05 21:44 | 43.17237 | -79.68617 | 5290 ft | 191 kts | 206° |
| 2026-05-05 21:45 | 43.15967 | -79.69164 | 4980 ft | 192 kts | 204° |
| 2026-05-05 21:45 | 43.14690 | -79.69706 | 4694 ft | 193 kts | 204° |
| 2026-05-05 21:45 | 43.13515 | -79.70428 | 4384 ft | 174 kts | 227° |
| 2026-05-05 21:45 | 43.12941 | -79.71729 | 4143 ft | 156 kts | 259° |
| 2026-05-05 21:46 | 43.13020 | -79.73185 | 3910 ft | 156 kts | 284° |
| 2026-05-05 21:46 | 43.13350 | -79.74605 | 3664 ft | 157 kts | 284° |
| 2026-05-05 21:46 | 43.13672 | -79.76018 | 3450 ft | 152 kts | 285° |
| 2026-05-05 21:46 | 43.13982 | -79.77371 | 3207 ft | 146 kts | 285° |
| 2026-05-05 21:47 | 43.14277 | -79.78659 | 3002 ft | 134 kts | 287° |
| 2026-05-05 21:47 | 43.14540 | -79.79812 | 2790 ft | 121 kts | 285° |
| 2026-05-05 21:47 | 43.14788 | -79.80896 | 2599 ft | 118 kts | 285° |
| 2026-05-05 21:47 | 43.15032 | -79.81964 | 2418 ft | 117 kts | 286° |
| 2026-05-05 21:48 | 43.15275 | -79.83034 | 2235 ft | 118 kts | 285° |
| 2026-05-05 21:48 | 43.15516 | -79.84100 | 2062 ft | 117 kts | 286° |
| 2026-05-05 21:48 | 43.15761 | -79.85157 | 1900 ft | 116 kts | 288° |
| 2026-05-05 21:48 | 43.16007 | -79.86201 | 1735 ft | 117 kts | 287° |
| 2026-05-05 21:49 | 43.16249 | -79.87270 | 1517 ft | 116 kts | 285° |
| 2026-05-05 21:49 | 43.16485 | -79.88322 | 1385 ft | 116 kts | 284° |
| 2026-05-05 21:49 | 43.16732 | -79.89363 | 1216 ft | 113 kts | 282° |
| 2026-05-05 21:49 | 43.16946 | -79.90401 | 1060 ft | 115 kts | 285° |
| 2026-05-05 21:50 | 43.17182 | -79.91441 | 877 ft | 113 kts | 284° |
| 2026-05-05 21:50 | 43.17412 | -79.92439 | 782 ft | 103 kts | 287° |
| 2026-05-05 21:50 | 43.17551 | -79.93052 | 781 ft | 36 kts | 287° |
| 2026-05-05 21:50 | 43.17562 | -79.93237 | 780 ft | 14 kts | 216° |
| 2026-05-05 21:51 | 43.17478 | -79.93187 | 779 ft | 17 kts | 148° |
| 2026-05-05 21:51 | 43.17385 | -79.93116 | 779 ft | 14 kts | 149° |
| 2026-05-05 21:51 | 43.17308 | -79.93052 | 779 ft | 13 kts | 149° |
| 2026-05-05 21:51 | 43.17217 | -79.92983 | 779 ft | 18 kts | 149° |
| 2026-05-05 21:52 | 43.17019 | -79.92928 | 773 ft | 15 kts | 230° |
| 2026-05-05 21:52 | 43.16946 | -79.93046 | 773 ft | 18 kts | 229° |
| 2026-05-05 21:52 | 43.16868 | -79.93168 | 776 ft | 15 kts | 229° |
| 2026-05-05 21:53 | 43.16804 | -79.93269 | 777 ft | 14 kts | 229° |
| 2026-05-05 21:53 | 43.16736 | -79.93372 | 779 ft | 17 kts | 227° |
| 2026-05-05 21:53 | 43.16644 | -79.93403 | 777 ft | 18 kts | 136° |
| 2026-05-05 21:53 | 43.16556 | -79.93325 | 777 ft | 14 kts | 201° |
| 2026-05-05 21:54 | 43.16471 | -79.93449 | 777 ft | 22 kts | 227° |
| 2026-05-05 21:54 | 43.16362 | -79.93536 | 777 ft | 17 kts | 176° |
| 2026-05-05 21:54 | 43.16278 | -79.93442 | 777 ft | 9 kts | 111° |
| 2026-05-05 21:54 | 43.16275 | -79.93425 | 777 ft | 5 kts | 105° |
| 2026-05-05 21:55 | 43.16261 | -79.93355 | 777 ft | 13 kts | 105° |
| 2026-05-05 21:55 | 43.16203 | -79.93269 | 777 ft | 12 kts | 179° |
| 2026-05-05 21:55 | 43.16177 | -79.93327 | 777 ft | 7 kts | 287° |
| 2026-05-05 21:55 | 43.16190 | -79.93349 | 777 ft | 1 kts | 353° |
| 2026-05-05 21:56 | 43.16198 | -79.93348 | 777 ft | 1 kts | 10° |
| 2026-05-05 21:56 | 43.16208 | -79.93345 | 777 ft | 0 kts | 13° |